Time;durP1;ratioP1;P1;durP2;ratioP2;P2;SDS_P1;SDS_P2;PMS_P1;PMS_P2;Temp;Humidity;BMP_temperature;BMP_pressure;BME280_temperature;BME280_humidity;BME280_pressure;Samples;Min_cycle;Max_cycle;Signal;HPM_P1;HPM_P2
2022/03/30 00:00:26;;;;;;;33.97;14.70;;;5.90;99.90;;;;;;4130190;28;20518;-78
2022/03/30 00:02:28;;;;;;;27.90;13.33;;;5.90;99.90;;;;;;4131132;28;20467;-78
2022/03/30 00:04:31;;;;;;;34.40;14.67;;;5.90;99.90;;;;;;4131426;28;20483;-78
2022/03/30 00:06:33;;;;;;;31.37;13.50;;;5.90;99.90;;;;;;4129553;28;20467;-78
2022/03/30 00:08:35;;;;;;;35.27;14.33;;;5.90;99.90;;;;;;4125048;28;20517;-79
2022/03/30 00:10:37;;;;;;;31.03;13.90;;;5.90;99.90;;;;;;4131232;28;21016;-79
2022/03/30 00:12:39;;;;;;;26.33;13.23;;;5.80;99.90;;;;;;4130387;28;20466;-79
2022/03/30 00:14:40;;;;;;;29.33;13.80;;;5.90;99.90;;;;;;4127541;28;20492;-78
2022/03/30 00:16:42;;;;;;;29.03;13.20;;;5.80;99.90;;;;;;4123655;28;20877;-78
2022/03/30 00:18:44;;;;;;;31.87;13.30;;;5.80;99.90;;;;;;4131827;28;20468;-78
2022/03/30 00:20:47;;;;;;;35.87;14.20;;;5.80;99.90;;;;;;4129946;28;20497;-78
2022/03/30 00:22:49;;;;;;;29.97;13.00;;;5.80;99.90;;;;;;4129899;28;20485;-79
2022/03/30 00:24:51;;;;;;;32.63;14.17;;;5.80;99.90;;;;;;4125233;28;20984;-78
2022/03/30 00:26:52;;;;;;;27.57;12.27;;;5.80;99.90;;;;;;4131057;28;20463;-78
2022/03/30 00:28:54;;;;;;;30.70;12.80;;;5.80;99.90;;;;;;4131066;28;20455;-79
2022/03/30 00:30:57;;;;;;;29.43;12.63;;;5.80;99.90;;;;;;4136827;28;20894;-78
2022/03/30 00:32:59;;;;;;;28.90;11.90;;;5.80;99.90;;;;;;4133293;28;20829;-78
2022/03/30 00:35:00;;;;;;;31.87;11.43;;;5.70;99.90;;;;;;4131672;28;20507;-78
2022/03/30 00:37:04;;;;;;;32.23;11.73;;;5.70;99.90;;;;;;4130356;28;20465;-78
2022/03/30 00:39:06;;;;;;;24.60;10.80;;;5.70;99.90;;;;;;4130198;28;20515;-79
2022/03/30 00:41:08;;;;;;;26.17;10.10;;;5.60;99.90;;;;;;4131830;28;20464;-79
2022/03/30 00:43:11;;;;;;;26.63;10.77;;;5.60;99.90;;;;;;4129773;28;20463;-79
2022/03/30 00:45:15;;;;;;;25.33;11.10;;;5.60;99.90;;;;;;4127937;28;20479;-78
2022/03/30 00:47:19;;;;;;;24.27;10.80;;;5.50;99.90;;;;;;4143050;28;20526;-78
2022/03/30 00:49:20;;;;;;;23.30;10.63;;;5.50;99.90;;;;;;4136767;28;20977;-78
2022/03/30 00:51:22;;;;;;;25.30;10.80;;;5.40;99.90;;;;;;4131401;28;20482;-78
2022/03/30 00:53:25;;;;;;;24.37;11.87;;;5.40;99.90;;;;;;4134336;28;20464;-78
2022/03/30 00:55:27;;;;;;;26.77;10.73;;;5.40;99.90;;;;;;4133901;28;20487;-78
2022/03/30 00:57:30;;;;;;;23.90;10.83;;;5.30;99.90;;;;;;4133504;28;20486;-79
2022/03/30 00:59:35;;;;;;;25.57;11.10;;;5.30;99.90;;;;;;4126639;28;20868;-80
2022/03/30 01:01:37;;;;;;;27.10;10.63;;;5.30;99.90;;;;;;4132649;28;20492;-78
2022/03/30 01:03:38;;;;;;;25.27;11.50;;;5.30;99.90;;;;;;4133671;28;20517;-79
2022/03/30 01:05:40;;;;;;;26.20;10.67;;;5.20;99.90;;;;;;4133698;28;20456;-80
2022/03/30 01:07:42;;;;;;;26.37;10.63;;;5.20;99.90;;;;;;4123991;28;20958;-78
2022/03/30 01:09:45;;;;;;;26.13;10.13;;;5.20;99.90;;;;;;4134013;28;20510;-78
2022/03/30 01:11:47;;;;;;;26.43;10.20;;;5.20;99.90;;;;;;4125878;28;20463;-79
2022/03/30 01:13:50;;;;;;;23.00;9.70;;;5.20;99.90;;;;;;4133946;28;20468;-78
2022/03/30 01:15:51;;;;;;;21.90;9.10;;;5.20;99.90;;;;;;4118780;28;20466;-78
2022/03/30 01:17:53;;;;;;;24.67;9.30;;;5.20;99.90;;;;;;4119868;28;20468;-79
2022/03/30 01:19:55;;;;;;;19.47;8.53;;;5.10;99.90;;;;;;4134103;28;20554;-79
2022/03/30 01:21:59;;;;;;;23.73;8.37;;;5.10;99.90;;;;;;4134039;28;20463;-80
2022/03/30 01:24:00;;;;;;;20.30;8.67;;;5.10;99.90;;;;;;4126821;28;20469;-78
2022/03/30 01:26:05;;;;;;;19.20;8.33;;;5.10;99.90;;;;;;4133086;28;20452;-78
2022/03/30 01:28:08;;;;;;;22.37;9.13;;;5.00;99.90;;;;;;4132984;28;20460;-79
2022/03/30 01:32:29;;;;;;;22.90;8.97;;;4.90;99.90;;;;;;4132083;28;20462;-78
2022/03/30 01:34:31;;;;;;;22.97;8.87;;;4.90;99.90;;;;;;4132991;28;20591;-79
2022/03/30 01:36:35;;;;;;;23.93;8.37;;;4.90;99.90;;;;;;4133929;28;20666;-79
2022/03/30 01:38:38;;;;;;;24.13;8.40;;;4.80;99.90;;;;;;4134300;28;20490;-79
2022/03/30 01:40:40;;;;;;;22.43;9.13;;;4.80;99.90;;;;;;4129952;28;20491;-80
2022/03/30 01:42:42;;;;;;;23.47;8.33;;;4.80;99.90;;;;;;4125718;28;20476;-78
2022/03/30 01:44:44;;;;;;;22.13;9.00;;;4.80;99.90;;;;;;4133247;28;20459;-78
2022/03/30 01:46:46;;;;;;;23.30;10.17;;;4.80;99.90;;;;;;4133031;28;20468;-78
2022/03/30 01:48:47;;;;;;;20.63;9.03;;;4.80;99.90;;;;;;4128735;28;20582;-79
2022/03/30 01:50:49;;;;;;;20.60;8.43;;;4.80;99.90;;;;;;4125537;28;20455;-78
2022/03/30 01:52:55;;;;;;;22.90;9.53;;;4.80;99.90;;;;;;4132005;28;20979;-78
2022/03/30 01:54:58;;;;;;;21.70;9.43;;;4.80;99.90;;;;;;4132569;28;20542;-79
2022/03/30 01:57:00;;;;;;;22.67;9.27;;;4.80;99.90;;;;;;4129389;28;20832;-79
2022/03/30 01:59:02;;;;;;;23.30;10.03;;;4.80;99.90;;;;;;4128323;28;20452;-80
2022/03/30 02:01:05;;;;;;;27.00;8.93;;;4.90;99.90;;;;;;4132636;28;20463;-79
2022/03/30 02:03:07;;;;;;;22.13;9.10;;;4.90;99.90;;;;;;4134355;28;20495;-79
2022/03/30 02:05:10;;;;;;;27.33;9.10;;;4.90;99.90;;;;;;4137055;28;20475;-79
2022/03/30 02:07:12;;;;;;;21.50;8.87;;;4.80;99.90;;;;;;4144445;28;20473;-80
2022/03/30 02:09:14;;;;;;;21.47;8.37;;;4.80;99.90;;;;;;4145366;28;20833;-80
2022/03/30 02:11:17;;;;;;;18.00;8.27;;;4.90;99.90;;;;;;4144594;28;21020;-79
2022/03/30 02:13:19;;;;;;;18.20;7.93;;;4.90;99.90;;;;;;4140502;28;20491;-79
2022/03/30 02:15:23;;;;;;;17.13;7.57;;;4.90;99.90;;;;;;4132302;28;20520;-79
2022/03/30 02:17:26;;;;;;;18.90;7.70;;;4.90;99.90;;;;;;4140740;28;20519;-79
2022/03/30 02:19:28;;;;;;;19.77;7.93;;;4.90;99.90;;;;;;4137134;28;21021;-79
2022/03/30 02:21:30;;;;;;;20.60;7.60;;;4.90;99.90;;;;;;4141961;28;20503;-79
2022/03/30 02:23:32;;;;;;;18.97;8.00;;;4.90;99.90;;;;;;4142681;28;20464;-79
2022/03/30 02:25:34;;;;;;;23.50;8.37;;;4.90;99.90;;;;;;4147495;28;20726;-79
2022/03/30 02:27:37;;;;;;;18.50;8.07;;;4.90;99.90;;;;;;4145169;28;20462;-79
2022/03/30 02:29:39;;;;;;;15.93;7.07;;;4.90;99.90;;;;;;4139832;28;20494;-79
2022/03/30 02:31:42;;;;;;;19.60;7.73;;;4.80;99.90;;;;;;4133937;28;20496;-79
2022/03/30 02:33:44;;;;;;;16.47;7.60;;;4.80;99.90;;;;;;4139090;28;20467;-79
2022/03/30 02:35:46;;;;;;;21.17;8.13;;;4.80;99.90;;;;;;4135513;28;20504;-79
2022/03/30 02:37:49;;;;;;;21.07;8.07;;;4.80;99.90;;;;;;4138007;28;20479;-79
2022/03/30 02:39:50;;;;;;;20.20;7.77;;;4.70;99.90;;;;;;4136783;28;20515;-79
2022/03/30 02:41:52;;;;;;;21.83;9.53;;;4.70;99.90;;;;;;4124844;28;20471;-79
2022/03/30 02:43:55;;;;;;;19.70;7.83;;;4.70;99.90;;;;;;4137215;28;20547;-79
2022/03/30 02:45:57;;;;;;;18.43;7.97;;;4.70;99.90;;;;;;4128975;28;20969;-79
2022/03/30 02:50:18;;;;;;;17.87;7.00;;;4.70;99.90;;;;;;4133057;28;21010;-79
2022/03/30 02:52:21;;;;;;;16.03;7.10;;;4.70;99.90;;;;;;4137405;28;20460;-79
2022/03/30 02:54:24;;;;;;;16.87;7.23;;;4.60;99.90;;;;;;4136228;28;20511;-79
2022/03/30 02:56:26;;;;;;;18.23;7.80;;;4.60;99.90;;;;;;4136779;28;20933;-79
2022/03/30 02:58:28;;;;;;;18.50;7.40;;;4.60;99.90;;;;;;4129049;28;20826;-79
2022/03/30 03:00:31;;;;;;;15.73;7.00;;;4.60;99.90;;;;;;4137909;28;20480;-79
2022/03/30 03:02:33;;;;;;;20.97;7.80;;;4.70;99.90;;;;;;4136838;28;20519;-79
2022/03/30 03:04:35;;;;;;;17.43;7.50;;;4.60;99.90;;;;;;4137602;28;20486;-79
2022/03/30 03:06:36;;;;;;;23.33;6.90;;;4.60;99.90;;;;;;4135902;28;20850;-79
2022/03/30 03:08:38;;;;;;;17.83;6.60;;;4.60;99.90;;;;;;4138609;28;20455;-79
2022/03/30 03:10:42;;;;;;;21.37;6.33;;;4.60;99.90;;;;;;4137789;28;20475;-79
2022/03/30 03:12:44;;;;;;;16.00;6.13;;;4.60;99.90;;;;;;4138558;28;20821;-79
2022/03/30 03:14:45;;;;;;;19.17;7.47;;;4.60;99.90;;;;;;4136936;28;20514;-79
2022/03/30 03:16:48;;;;;;;17.23;6.63;;;4.60;99.90;;;;;;4137185;28;20455;-79
2022/03/30 03:18:50;;;;;;;14.10;6.20;;;4.60;99.90;;;;;;4137788;28;20937;-79
2022/03/30 03:20:52;;;;;;;13.97;6.00;;;4.60;99.90;;;;;;4137433;28;20468;-79
2022/03/30 03:22:54;;;;;;;17.40;6.93;;;4.60;99.90;;;;;;4132130;28;20483;-79
2022/03/30 03:24:56;;;;;;;16.70;6.17;;;4.60;99.90;;;;;;4127933;28;20558;-79
2022/03/30 03:26:59;;;;;;;15.33;5.73;;;4.60;99.90;;;;;;4131645;28;20916;-79
2022/03/30 03:29:04;;;;;;;15.53;5.77;;;4.60;99.90;;;;;;4131003;28;20934;-79
2022/03/30 03:31:06;;;;;;;15.97;5.53;;;4.60;99.90;;;;;;4132389;28;20467;-79
2022/03/30 03:33:10;;;;;;;16.67;5.60;;;4.60;99.90;;;;;;4128163;28;20463;-79
2022/03/30 03:35:13;;;;;;;14.50;5.57;;;4.60;99.90;;;;;;4131210;28;20492;-79
2022/03/30 03:37:15;;;;;;;12.60;4.80;;;4.70;99.90;;;;;;4130584;28;20502;-78
2022/03/30 03:39:17;;;;;;;18.50;5.30;;;4.60;99.90;;;;;;4128141;28;20486;-79
2022/03/30 03:41:19;;;;;;;13.07;4.90;;;4.60;99.90;;;;;;4130744;28;20558;-79
2022/03/30 03:43:22;;;;;;;11.77;5.13;;;4.60;99.90;;;;;;4126405;28;20476;-79
2022/03/30 03:45:24;;;;;;;12.67;4.80;;;4.60;99.90;;;;;;4131200;28;20456;-79
2022/03/30 03:47:26;;;;;;;14.60;4.80;;;4.60;99.90;;;;;;4130733;28;20937;-79
2022/03/30 03:49:29;;;;;;;14.17;4.43;;;4.70;99.90;;;;;;4130238;28;20480;-79
2022/03/30 03:51:31;;;;;;;10.33;4.27;;;4.60;99.90;;;;;;4129878;28;20625;-79
2022/03/30 03:53:35;;;;;;;12.53;4.87;;;4.60;99.90;;;;;;4135175;28;20472;-78
2022/03/30 03:55:36;;;;;;;14.07;4.13;;;4.60;99.90;;;;;;4131574;28;20491;-78
2022/03/30 03:57:39;;;;;;;11.47;3.97;;;4.60;99.90;;;;;;4132263;28;20879;-78
2022/03/30 03:59:41;;;;;;;11.03;3.90;;;4.60;99.90;;;;;;4136667;28;20479;-78
2022/03/30 04:01:42;;;;;;;12.63;3.87;;;4.60;99.90;;;;;;4129873;28;20480;-78
2022/03/30 04:03:45;;;;;;;13.23;4.27;;;4.60;99.90;;;;;;4121990;28;20444;-78
2022/03/30 04:05:48;;;;;;;10.97;4.37;;;4.60;99.90;;;;;;4136247;28;20471;-78
2022/03/30 04:07:49;;;;;;;7.63;3.37;;;4.60;99.90;;;;;;4132171;28;20464;-78
2022/03/30 04:09:51;;;;;;;12.93;4.17;;;4.50;99.90;;;;;;4131132;28;20483;-78
2022/03/30 04:11:53;;;;;;;10.73;3.60;;;4.50;99.90;;;;;;4132085;28;20460;-78
2022/03/30 04:13:55;;;;;;;11.73;4.27;;;4.60;99.90;;;;;;4132218;28;20471;-78
2022/03/30 04:15:57;;;;;;;10.63;4.50;;;4.60;99.90;;;;;;4130921;28;20491;-78
2022/03/30 04:18:00;;;;;;;11.87;4.17;;;4.50;99.90;;;;;;4131312;28;20456;-78
2022/03/30 04:20:02;;;;;;;16.63;4.53;;;4.60;99.90;;;;;;4130113;28;21000;-78
2022/03/30 04:22:06;;;;;;;12.20;4.03;;;4.60;99.90;;;;;;4132890;28;20455;-78
2022/03/30 04:24:08;;;;;;;10.73;4.43;;;4.60;99.90;;;;;;4116465;28;20503;-79
2022/03/30 04:26:11;;;;;;;17.23;4.77;;;4.60;99.90;;;;;;4127436;28;20460;-79
2022/03/30 04:28:14;;;;;;;11.50;4.00;;;4.60;99.90;;;;;;4131380;28;20800;-78
2022/03/30 04:30:17;;;;;;;16.00;4.63;;;4.50;99.90;;;;;;4127594;28;20956;-78
2022/03/30 04:32:19;;;;;;;13.87;4.00;;;4.60;99.90;;;;;;4125461;28;21047;-78
2022/03/30 04:34:21;;;;;;;14.87;4.20;;;4.50;99.90;;;;;;4130606;28;20466;-78
2022/03/30 04:36:23;;;;;;;13.63;3.87;;;4.50;99.90;;;;;;4128834;28;20491;-78
2022/03/30 04:38:26;;;;;;;16.90;4.27;;;4.50;99.90;;;;;;4130935;28;20459;-78
2022/03/30 04:40:28;;;;;;;8.80;4.20;;;4.50;99.90;;;;;;4127645;28;20570;-78
2022/03/30 04:42:30;;;;;;;11.17;3.73;;;4.50;99.90;;;;;;4127274;28;20471;-79
2022/03/30 04:44:32;;;;;;;13.13;4.37;;;4.50;99.90;;;;;;4130978;28;20455;-78
2022/03/30 04:46:34;;;;;;;14.53;4.33;;;4.50;99.90;;;;;;4128200;28;20471;-77
2022/03/30 04:48:36;;;;;;;14.87;5.20;;;4.50;99.90;;;;;;4130710;28;20459;-77
2022/03/30 04:50:38;;;;;;;14.50;4.70;;;4.50;99.90;;;;;;4128531;28;20491;-78
2022/03/30 04:52:41;;;;;;;15.37;4.50;;;4.70;99.90;;;;;;4130601;28;20514;-78
2022/03/30 04:54:44;;;;;;;12.73;4.20;;;4.50;99.90;;;;;;4130125;28;20463;-78
2022/03/30 04:56:47;;;;;;;13.10;4.17;;;4.50;99.90;;;;;;4129275;28;20502;-78
2022/03/30 04:58:50;;;;;;;12.87;4.50;;;4.50;99.90;;;;;;4125777;28;20468;-79
2022/03/30 05:00:52;;;;;;;17.57;3.90;;;4.40;99.90;;;;;;4120899;28;20954;-78
2022/03/30 05:02:54;;;;;;;15.93;5.13;;;4.50;99.90;;;;;;4130165;28;21042;-77
2022/03/30 05:04:57;;;;;;;13.07;4.37;;;4.50;99.90;;;;;;4128250;28;20448;-78
2022/03/30 05:06:59;;;;;;;12.07;4.20;;;4.50;99.90;;;;;;4122968;28;20464;-79
2022/03/30 05:09:01;;;;;;;13.63;4.20;;;4.50;99.90;;;;;;4130015;28;20497;-78
2022/03/30 05:11:04;;;;;;;11.60;4.47;;;4.50;99.90;;;;;;4127426;28;20475;-78
2022/03/30 05:13:06;;;;;;;10.90;3.70;;;4.40;99.90;;;;;;4130108;28;20498;-77
2022/03/30 05:15:09;;;;;;;16.97;4.20;;;4.40;99.90;;;;;;4129525;28;20529;-78
2022/03/30 05:17:11;;;;;;;14.73;4.07;;;4.40;99.90;;;;;;4125995;28;21007;-77
2022/03/30 05:19:13;;;;;;;8.20;3.90;;;4.40;99.90;;;;;;4129189;28;20493;-78
2022/03/30 05:21:15;;;;;;;9.57;4.73;;;4.40;99.90;;;;;;4128873;28;20558;-77
2022/03/30 05:23:17;;;;;;;11.93;4.40;;;4.40;99.90;;;;;;4127379;28;20467;-78
2022/03/30 05:25:19;;;;;;;15.93;4.40;;;4.40;99.90;;;;;;4128516;28;20949;-75
2022/03/30 05:27:22;;;;;;;11.80;4.70;;;4.40;99.90;;;;;;4131114;28;20459;-77
2022/03/30 05:29:24;;;;;;;10.17;4.07;;;4.50;99.90;;;;;;4130604;28;20479;-77
2022/03/30 05:31:26;;;;;;;11.57;4.60;;;4.50;99.90;;;;;;4128819;28;20534;-77
2022/03/30 05:33:28;;;;;;;17.20;5.60;;;4.50;99.90;;;;;;4129468;28;20957;-78
2022/03/30 05:35:30;;;;;;;14.77;4.37;;;4.50;99.90;;;;;;4129489;28;20483;-77
2022/03/30 05:37:32;;;;;;;13.07;4.70;;;4.80;99.90;;;;;;4131068;28;20459;-77
2022/03/30 05:39:35;;;;;;;14.40;4.10;;;4.50;99.90;;;;;;4132788;28;20539;-77
2022/03/30 05:41:37;;;;;;;12.43;4.13;;;4.50;99.90;;;;;;4131217;28;20628;-77
2022/03/30 05:43:40;;;;;;;13.17;4.60;;;4.60;99.90;;;;;;4132342;28;20452;-77
2022/03/30 05:45:42;;;;;;;14.20;4.50;;;4.60;99.90;;;;;;4130016;28;20514;-76
2022/03/30 05:47:44;;;;;;;10.83;4.40;;;4.60;99.90;;;;;;4130344;28;20452;-77
2022/03/30 05:49:46;;;;;;;11.00;4.03;;;4.60;99.90;;;;;;4130018;28;20483;-77
2022/03/30 05:51:47;;;;;;;13.87;4.70;;;4.60;99.90;;;;;;4130457;28;21023;-77
2022/03/30 05:53:49;;;;;;;12.83;4.43;;;4.60;99.90;;;;;;4131425;28;20503;-77
2022/03/30 05:55:51;;;;;;;17.43;4.17;;;4.70;99.90;;;;;;4131571;28;20495;-77
2022/03/30 05:57:53;;;;;;;11.23;4.17;;;4.70;99.90;;;;;;4132388;28;20548;-78
2022/03/30 05:59:58;;;;;;;12.80;4.53;;;4.60;99.90;;;;;;4132246;28;20487;-77
2022/03/30 06:02:00;;;;;;;11.40;4.33;;;4.60;99.90;;;;;;4129095;28;20518;-76
2022/03/30 06:04:03;;;;;;;9.97;4.13;;;4.70;99.90;;;;;;4129558;28;20582;-77
2022/03/30 06:06:05;;;;;;;11.63;4.50;;;4.70;99.90;;;;;;4128258;28;21016;-77
2022/03/30 06:08:09;;;;;;;12.53;4.17;;;4.70;99.90;;;;;;4125802;28;20965;-77
2022/03/30 06:10:11;;;;;;;18.97;3.93;;;4.80;99.90;;;;;;4128837;28;20608;-78
2022/03/30 06:12:13;;;;;;;12.67;4.37;;;4.80;99.90;;;;;;4127679;28;20471;-79
2022/03/30 06:14:15;;;;;;;12.10;4.00;;;4.80;99.90;;;;;;4129124;28;20456;-78
2022/03/30 06:16:18;;;;;;;11.87;4.63;;;4.80;99.90;;;;;;4128792;28;20480;-76
2022/03/30 06:18:20;;;;;;;12.33;4.43;;;4.80;99.90;;;;;;4132974;28;20464;-78
2022/03/30 06:20:22;;;;;;;16.57;4.50;;;4.90;99.90;;;;;;4129856;28;21173;-78
2022/03/30 06:22:29;;;;;;;11.77;4.27;;;4.90;99.90;;;;;;4124348;28;20481;-76
2022/03/30 06:24:31;;;;;;;13.80;4.13;;;4.90;99.90;;;;;;4124569;28;20888;-76
2022/03/30 06:26:33;;;;;;;17.63;6.00;;;4.90;99.90;;;;;;4124488;28;20961;-76
2022/03/30 06:28:35;;;;;;;19.17;6.47;;;4.90;99.90;;;;;;4129866;28;20823;-76
2022/03/30 06:30:37;;;;;;;11.10;5.43;;;5.00;99.90;;;;;;4127313;28;20472;-77
2022/03/30 06:32:40;;;;;;;17.93;5.30;;;5.00;99.90;;;;;;4121742;28;20476;-81
2022/03/30 06:34:42;;;;;;;15.17;4.57;;;5.00;99.90;;;;;;4122767;28;20456;-78
2022/03/30 06:36:44;;;;;;;14.00;4.40;;;5.00;99.90;;;;;;4126321;28;20812;-76
2022/03/30 06:38:46;;;;;;;11.23;4.70;;;5.10;99.90;;;;;;4126191;28;20900;-77
2022/03/30 06:40:47;;;;;;;17.60;5.43;;;5.20;99.90;;;;;;4126630;28;20484;-77
2022/03/30 06:42:49;;;;;;;17.37;5.00;;;5.10;99.90;;;;;;4126167;28;20467;-78
2022/03/30 06:44:51;;;;;;;15.87;5.30;;;5.20;99.90;;;;;;4126846;28;20495;-77
2022/03/30 06:46:53;;;;;;;13.80;4.40;;;5.20;99.90;;;;;;4123644;28;20830;-77
2022/03/30 06:48:56;;;;;;;16.30;4.77;;;5.20;99.90;;;;;;4124571;28;20463;-77
2022/03/30 06:50:58;;;;;;;9.77;3.83;;;5.20;99.90;;;;;;4124473;28;20494;-77
2022/03/30 06:53:00;;;;;;;12.53;4.20;;;5.30;99.90;;;;;;4126189;28;20481;-77
2022/03/30 06:55:05;;;;;;;15.47;3.83;;;5.30;99.90;;;;;;4124838;28;20568;-77
2022/03/30 06:57:07;;;;;;;10.97;4.17;;;5.30;99.90;;;;;;4126987;28;20895;-78
2022/03/30 06:59:11;;;;;;;15.33;3.43;;;5.40;99.90;;;;;;4125586;28;20995;-76
2022/03/30 07:01:15;;;;;;;11.20;3.90;;;5.40;99.90;;;;;;4125047;28;20491;-76
2022/03/30 07:03:17;;;;;;;16.10;3.80;;;5.50;99.90;;;;;;4126039;28;20499;-78
2022/03/30 07:05:21;;;;;;;7.70;3.27;;;5.40;99.90;;;;;;4126257;28;20482;-77
2022/03/30 07:12:01;;;;;;;8.13;3.80;;;5.60;99.90;;;;;;4126196;28;20442;-78
2022/03/30 07:14:03;;;;;;;11.73;3.40;;;5.60;99.90;;;;;;4125951;28;20550;-77
2022/03/30 07:16:05;;;;;;;10.57;3.03;;;5.60;99.90;;;;;;4124942;28;20503;-77
2022/03/30 07:18:08;;;;;;;8.47;3.47;;;5.60;99.90;;;;;;4126444;28;20464;-78
2022/03/30 07:20:10;;;;;;;11.93;3.30;;;5.70;99.90;;;;;;4088948;28;1099390;-77
2022/03/30 07:22:14;;;;;;;7.17;3.03;;;5.70;99.90;;;;;;4128026;28;20460;-77
2022/03/30 07:24:16;;;;;;;13.50;4.20;;;5.80;99.90;;;;;;4125349;28;20464;-77
2022/03/30 07:26:17;;;;;;;11.10;3.93;;;5.80;99.90;;;;;;4126757;28;20486;-77
2022/03/30 07:28:19;;;;;;;9.60;3.13;;;5.90;99.90;;;;;;4128082;28;20529;-78
2022/03/30 07:30:23;;;;;;;14.00;3.80;;;5.90;99.90;;;;;;4126493;28;20621;-78
2022/03/30 07:32:25;;;;;;;12.80;3.67;;;6.00;99.90;;;;;;4129935;28;20887;-78
2022/03/30 07:34:27;;;;;;;9.30;3.17;;;6.00;99.90;;;;;;4131558;28;20857;-80
2022/03/30 07:36:28;;;;;;;10.23;3.30;;;6.10;99.90;;;;;;4127282;28;20503;-79
2022/03/30 07:38:31;;;;;;;16.70;3.93;;;6.10;99.90;;;;;;4127201;28;20485;-77
2022/03/30 07:40:33;;;;;;;13.53;3.37;;;6.20;99.90;;;;;;4118479;28;20567;-78
2022/03/30 07:42:36;;;;;;;9.13;3.43;;;6.30;99.90;;;;;;4124773;28;20978;-79
2022/03/30 07:44:37;;;;;;;14.83;3.53;;;6.40;99.90;;;;;;4126050;28;20835;-78
2022/03/30 07:46:39;;;;;;;12.50;3.50;;;6.40;99.90;;;;;;4126010;28;20515;-77
2022/03/30 07:48:41;;;;;;;12.10;3.73;;;6.40;99.90;;;;;;4125310;28;20478;-78
2022/03/30 07:50:43;;;;;;;10.93;3.03;;;6.40;99.90;;;;;;4126109;28;21057;-77
2022/03/30 07:52:46;;;;;;;12.20;3.33;;;6.50;99.90;;;;;;4126641;28;20453;-77
2022/03/30 07:54:49;;;;;;;11.63;3.43;;;6.60;99.90;;;;;;4125801;28;21295;-79
2022/03/30 07:56:51;;;;;;;11.13;3.20;;;6.70;99.90;;;;;;4123619;28;20498;-76
2022/03/30 07:58:53;;;;;;;14.97;3.73;;;6.70;99.90;;;;;;4126141;28;20960;-76
2022/03/30 08:00:55;;;;;;;12.03;3.20;;;6.70;99.90;;;;;;4126743;28;20475;-76
2022/03/30 08:02:58;;;;;;;14.23;3.50;;;6.80;99.90;;;;;;4125815;28;20862;-76
2022/03/30 08:05:00;;;;;;;10.70;3.10;;;6.80;99.90;;;;;;4125547;28;20518;-76
2022/03/30 08:07:02;;;;;;;9.87;3.10;;;6.90;99.90;;;;;;4126201;28;20869;-78
2022/03/30 08:09:03;;;;;;;11.80;3.30;;;7.00;99.90;;;;;;4123604;28;20473;-77
2022/03/30 08:11:07;;;;;;;11.73;3.03;;;7.00;99.90;;;;;;4125802;28;20462;-76
2022/03/30 08:13:10;;;;;;;8.97;2.87;;;7.00;99.90;;;;;;4125411;28;20489;-78
2022/03/30 08:15:13;;;;;;;9.23;2.50;;;7.10;99.90;;;;;;4126216;28;20554;-77
2022/03/30 08:17:14;;;;;;;12.17;3.20;;;7.10;99.90;;;;;;4124465;28;20490;-79
2022/03/30 08:23:38;;;;;;;8.40;2.83;;;7.10;99.90;;;;;;4152449;28;20496;-81
2022/03/30 08:25:40;;;;;;;10.57;3.00;;;7.20;98.40;;;;;;4153234;28;21008;-81
2022/03/30 08:27:46;;;;;;;10.43;2.70;;;7.20;99.20;;;;;;4150788;28;20508;-81
2022/03/30 08:29:47;;;;;;;13.73;3.03;;;7.30;98.80;;;;;;4144549;28;20479;-81
2022/03/30 08:31:49;;;;;;;12.10;2.73;;;7.30;95.40;;;;;;4146188;28;21103;-81
2022/03/30 08:33:51;;;;;;;14.00;3.33;;;7.30;94.90;;;;;;4145709;28;21012;-81
2022/03/30 08:35:54;;;;;;;13.60;3.20;;;7.30;94.10;;;;;;4142431;28;20548;-81
2022/03/30 08:37:56;;;;;;;9.00;3.13;;;7.40;94.00;;;;;;4146365;28;20490;-80
2022/03/30 08:39:58;;;;;;;10.47;3.03;;;7.50;93.60;;;;;;4144299;28;20502;-81
2022/03/30 08:42:01;;;;;;;10.93;2.87;;;7.60;92.50;;;;;;4144958;28;20469;-80
2022/03/30 08:44:04;;;;;;;12.30;3.50;;;7.60;87.90;;;;;;4143268;28;20495;-81
2022/03/30 08:46:06;;;;;;;12.97;3.43;;;7.70;84.00;;;;;;4143887;28;20936;-80
2022/03/30 08:48:08;;;;;;;12.10;3.00;;;7.80;80.60;;;;;;4139674;28;20948;-81
2022/03/30 08:50:10;;;;;;;8.63;3.30;;;7.90;76.20;;;;;;4144506;28;20470;-81
2022/03/30 08:52:12;;;;;;;8.60;3.00;;;8.10;76.90;;;;;;4144515;28;20458;-80
2022/03/30 08:54:16;;;;;;;12.53;3.60;;;8.00;77.60;;;;;;4144211;28;20446;-82
2022/03/30 08:56:18;;;;;;;14.30;3.90;;;8.20;74.90;;;;;;4142443;28;20463;-82
2022/03/30 08:58:20;;;;;;;9.60;3.40;;;8.20;71.90;;;;;;4144657;28;20493;-82
2022/03/30 09:00:24;;;;;;;9.87;3.37;;;8.30;68.80;;;;;;4146100;28;20474;-82
2022/03/30 09:02:34;;;;;;;12.17;3.03;;;8.40;68.90;;;;;;4143553;28;20474;-82
2022/03/30 09:04:38;;;;;;;11.20;3.30;;;8.40;66.90;;;;;;4143332;28;20834;-82
2022/03/30 09:06:42;;;;;;;11.03;3.37;;;8.40;67.00;;;;;;4145632;28;20824;-81
2022/03/30 09:08:44;;;;;;;10.80;3.50;;;8.50;65.60;;;;;;4144024;28;20466;-82
2022/03/30 09:10:48;;;;;;;15.37;3.53;;;8.50;65.40;;;;;;4148317;28;20516;-82
2022/03/30 09:12:51;;;;;;;9.83;3.60;;;8.60;65.80;;;;;;4144892;28;20470;-82
2022/03/30 09:15:01;;;;;;;9.73;3.30;;;8.60;64.20;;;;;;4147618;28;20477;-82
2022/03/30 09:17:06;;;;;;;12.17;3.33;;;8.60;63.90;;;;;;4146934;28;20504;-82
2022/03/30 09:19:09;;;;;;;14.00;3.77;;;8.60;64.00;;;;;;4147761;28;20629;-81
2022/03/30 09:21:11;;;;;;;14.77;4.03;;;8.60;62.30;;;;;;4148697;28;20250;-81
2022/03/30 09:23:15;;;;;;;9.00;3.20;;;8.60;62.50;;;;;;4145495;28;20462;-80
2022/03/30 09:25:18;;;;;;;11.93;3.63;;;8.70;62.80;;;;;;4151171;28;20218;-81
2022/03/30 09:27:22;;;;;;;17.70;3.73;;;8.80;62.20;;;;;;4152351;28;20208;-80
2022/03/30 09:29:27;;;;;;;8.43;3.30;;;8.80;61.80;;;;;;4154996;28;20470;-81
2022/03/30 09:31:30;;;;;;;10.80;3.73;;;8.90;63.20;;;;;;4151753;28;20242;-80
2022/03/30 09:33:33;;;;;;;11.57;3.67;;;8.90;62.60;;;;;;4147365;28;20963;-80
2022/03/30 09:35:38;;;;;;;9.77;4.10;;;9.00;63.30;;;;;;4147082;28;20466;-81
2022/03/30 09:37:43;;;;;;;12.97;3.77;;;9.00;63.70;;;;;;4147178;28;20684;-81
2022/03/30 09:39:45;;;;;;;12.40;3.77;;;9.10;62.40;;;;;;4146610;28;20227;-81
2022/03/30 09:41:49;;;;;;;12.57;4.17;;;9.20;62.30;;;;;;4147284;28;20219;-81
2022/03/30 09:44:01;;;;;;;15.00;4.40;;;9.30;62.30;;;;;;4149147;28;20212;-81
2022/03/30 09:46:09;;;;;;;14.33;3.90;;;9.30;62.90;;;;;;4153086;28;20243;-81
2022/03/30 09:48:15;;;;;;;12.13;4.13;;;9.30;62.30;;;;;;4154363;28;20231;-80
2022/03/30 09:50:28;;;;;;;12.73;3.70;;;9.30;61.20;;;;;;4153221;28;20303;-81
2022/03/30 09:52:33;;;;;;;13.40;4.00;;;9.30;64.40;;;;;;4140225;28;20219;-81
2022/03/30 09:54:40;;;;;;;10.30;3.70;;;9.40;65.80;;;;;;4149890;28;20690;-81
2022/03/30 09:56:43;;;;;;;10.77;4.50;;;9.40;62.30;;;;;;4148683;28;20556;-81
2022/03/30 09:58:45;;;;;;;13.83;4.40;;;9.30;64.40;;;;;;4148358;28;20212;-82
2022/03/30 10:01:08;;;;;;;10.50;4.00;;;9.30;64.40;;;;;;4150316;28;20240;-82
2022/03/30 10:03:10;;;;;;;15.73;4.13;;;9.40;63.30;;;;;;4146808;28;20251;-82
2022/03/30 10:05:14;;;;;;;10.87;4.17;;;9.50;64.50;;;;;;4146629;28;20223;-81
2022/03/30 10:07:17;;;;;;;14.83;4.17;;;9.60;64.40;;;;;;4144751;28;20219;-81
2022/03/30 10:09:22;;;;;;;11.20;4.90;;;9.80;64.60;;;;;;4141809;28;20217;-81
2022/03/30 10:11:26;;;;;;;15.43;4.60;;;9.90;64.40;;;;;;4149145;28;20239;-81
2022/03/30 10:13:28;;;;;;;11.63;4.17;;;9.90;62.90;;;;;;4146572;28;20208;-81
2022/03/30 10:15:30;;;;;;;14.20;4.70;;;10.10;62.70;;;;;;4146068;28;20219;-81
2022/03/30 10:17:32;;;;;;;13.53;4.93;;;10.10;61.80;;;;;;4142917;28;20654;-82
2022/03/30 10:19:34;;;;;;;15.50;4.77;;;10.00;62.40;;;;;;4144550;28;20216;-83
2022/03/30 10:21:44;;;;;;;14.70;5.10;;;10.20;62.80;;;;;;4135977;28;20224;-83
2022/03/30 10:24:15;;;;;;;13.67;5.33;;;10.20;64.70;;;;;;4140717;28;20217;-82
2022/03/30 10:26:33;;;;;;;12.70;4.20;;;10.20;69.50;;;;;;4143725;28;20212;-82
2022/03/30 10:28:56;;;;;;;12.70;4.90;;;10.20;67.20;;;;;;4151487;28;21362;-82
2022/03/30 10:30:59;;;;;;;10.57;3.93;;;10.20;70.50;;;;;;4148017;28;20240;-82
2022/03/30 10:33:04;;;;;;;13.40;4.90;;;10.20;74.20;;;;;;4140147;28;20221;-82
2022/03/30 10:35:09;;;;;;;13.47;4.67;;;10.30;74.10;;;;;;4146324;28;20216;-82
2022/03/30 10:37:11;;;;;;;14.93;5.03;;;10.30;69.80;;;;;;4146498;28;20217;-82
2022/03/30 10:39:28;;;;;;;12.03;4.47;;;10.30;68.40;;;;;;4143847;28;20255;-82
2022/03/30 10:41:48;;;;;;;10.80;4.53;;;10.30;64.90;;;;;;4144978;28;20287;-82
2022/03/30 10:43:50;;;;;;;12.23;4.40;;;10.20;63.50;;;;;;4142516;28;20217;-80
2022/03/30 10:45:58;;;;;;;15.70;4.20;;;10.30;63.50;;;;;;4147102;28;20254;-84
2022/03/30 10:48:08;;;;;;;12.43;4.30;;;10.30;63.90;;;;;;4133346;28;20297;-82
2022/03/30 10:50:10;;;;;;;16.10;4.20;;;10.30;67.20;;;;;;4142939;28;20243;-82
2022/03/30 10:52:31;;;;;;;13.10;4.40;;;10.30;70.70;;;;;;4149422;28;20213;-82